Latest Weather Observations for Wilsons Promontory

IDV60801

Issued at 10:52 pm EDT Monday 19 November 2018 (issued every 10 minutes, with the page automatically refreshed every 10 minutes)

About weather observations | Map of weather stations | Latest weather observations for VIC | Other Formats
Station Details ID: 085096 Name: WILSONS PROMONTORY LIGHTHOUSE Lat: -39.13 Lon: 146.42 Height: 95.0 m
Data from the previous 72 hours. | See also: Recent months at Wilsons Promontory
Date/Time
EDT
Temp
°C
App
Temp
°C
Dew
Point
°C
Rel
Hum
%
Delta-T
°C
Wind Press
QNH
hPa
Press
MSL
hPa
Rain since
9am
mm
Dir  Spd
km/h
Gust
km/h
Spd
kts
Gust
kts
19/10:35pm 16.1 10.4 14.3 89 1.0 NNE 37 56 20 30 1013.8 - 0.0
19/10:30pm 16.1 10.1 14.3 89 1.0 NNE 39 56 21 30 1013.8 - 0.0
19/10:29pm 16.0 10.3 14.2 89 1.0 NNE 37 56 20 30 1013.9 - 0.0
19/10:00pm 16.1 9.6 14.1 88 1.1 NNE 41 52 22 28 1014.1 - 0.0
19/09:30pm 16.0 9.5 14.0 88 1.1 NNE 41 54 22 29 1014.2 - 0.0
19/09:00pm 16.0 9.9 14.0 88 1.1 NNE 39 50 21 27 1014.3 1014.3 0.0
19/08:30pm 15.9 9.7 13.7 87 1.2 NNE 39 52 21 28 1014.2 - 0.0
19/08:00pm 15.9 9.3 13.7 87 1.2 NNE 41 50 22 27 1014.3 - 0.0
19/07:30pm 16.0 9.4 13.7 86 1.3 NNE 41 52 22 28 1014.2 - 0.0
19/07:00pm 16.1 9.8 13.6 85 1.4 NNE 39 48 21 26 1014.2 - 0.0
19/06:30pm 16.3 10.0 13.6 84 1.5 NNE 39 48 21 26 1014.3 - 0.0
19/06:00pm 16.5 10.6 13.6 83 1.6 NNE 37 46 20 25 1014.4 1014.4 0.0
19/05:30pm 16.7 10.4 13.4 81 1.9 NNE 39 46 21 25 1014.6 - 0.0
19/05:00pm 16.9 10.9 13.4 80 2.0 NNE 37 44 20 24 1014.8 - 0.0
19/04:30pm 17.3 11.3 13.4 78 2.2 NNE 37 44 20 24 1014.9 - 0.0
19/04:00pm 17.3 11.5 12.8 75 2.5 NNE 35 43 19 23 1015.2 - 0.0
19/03:30pm 17.5 12.2 13.0 75 2.5 NNE 33 43 18 23 1015.5 - 0.0
19/03:00pm 18.2 13.1 13.1 72 2.9 NNE 32 41 17 22 1016.1 1016.2 0.0
19/02:30pm 18.3 13.4 12.5 69 3.2 NNE 30 39 16 21 1016.4 - 0.0
19/02:00pm 18.7 13.8 12.7 68 3.4 NNE 30 39 16 21 1016.9 - 0.0
19/01:30pm 18.5 13.1 12.3 67 3.5 NNE 32 43 17 23 1017.0 - 0.0
19/01:00pm 18.4 12.9 12.4 68 3.4 NNE 33 41 18 22 1017.3 - 0.0
19/12:30pm 18.5 13.0 12.5 68 3.4 NNE 33 44 18 24 1017.7 - 0.0
19/12:00pm 18.4 12.9 12.4 68 3.3 NNE 33 46 18 25 1018.0 1018.0 0.0
19/11:30am 18.4 12.9 12.4 68 3.4 NNE 33 44 18 24 1018.2 - 0.0
19/11:00am 18.2 12.7 12.4 69 3.2 NNE 33 44 18 24 1018.4 - 0.0
19/10:30am 18.0 12.1 12.5 70 3.1 NNE 35 48 19 26 1018.5 - 0.0
19/10:00am 17.6 10.6 12.5 72 2.8 NNE 41 54 22 29 1018.4 - 0.0
19/09:30am 17.3 9.9 12.6 74 2.6 NNE 43 52 23 28 1018.4 - 0.0
19/09:00am 17.1 9.8 12.8 76 2.4 NNE 43 54 23 29 1018.5 1018.5 0.0
19/08:30am 16.8 9.5 12.9 78 2.2 NNE 43 54 23 29 1018.5 - 0.0
19/08:00am 16.5 9.3 13.2 81 1.9 NNE 43 52 23 28 1018.4 - 0.0
19/07:30am 16.2 9.5 13.5 84 1.5 NNE 41 50 22 27 1018.4 - 0.0
19/07:00am 15.8 9.1 13.5 86 1.3 NNE 41 48 22 26 1018.3 - 0.0
19/06:30am 15.3 8.1 13.1 87 1.2 NNE 43 50 23 27 1018.1 - 0.0
19/06:00am 14.9 7.6 12.9 88 1.1 NNE 43 52 23 28 1017.9 1017.9 0.0
19/05:30am 14.8 7.5 12.8 88 1.1 NNE 43 50 23 27 1017.8 - 0.0
19/05:00am 14.8 7.9 12.7 87 1.2 NE 41 48 22 26 1017.7 - 0.0
19/04:30am 14.8 7.9 12.7 87 1.2 NE 41 50 22 27 1017.8 - 0.0
19/04:00am 14.8 7.9 12.7 87 1.2 NNE 41 46 22 25 1018.0 - 0.0
19/03:30am 14.8 7.9 12.7 87 1.2 NNE 41 50 22 27 1018.1 - 0.0
19/03:00am 14.8 7.8 12.5 86 1.3 NNE 41 50 22 27 1018.3 1018.3 0.0
19/02:30am 14.8 8.2 12.5 86 1.3 NNE 39 50 21 27 1018.6 - 0.0
19/02:00am 14.8 8.1 12.3 85 1.4 NNE 39 48 21 26 1018.9 - 0.0
19/01:30am 14.8 8.0 12.1 84 1.5 NNE 39 46 21 25 1019.2 - 0.0
19/01:00am 14.9 8.2 12.2 84 1.5 NNE 39 46 21 25 1019.6 - 0.0
19/12:30am 14.9 8.1 12.0 83 1.6 NNE 39 46 21 25 1020.0 - 0.0
19/12:00am 15.0 7.9 12.1 83 1.6 NNE 41 52 22 28 1020.2 1020.2 0.0
 
Date/Time
EDT
Temp
°C
App
Temp
°C
Dew
Point
°C
Rel
Hum
%
Delta-T
°C
Wind Press
QNH
hPa
Press
MSL
hPa
Rain since
9am
mm
Dir  Spd
km/h
Gust
km/h
Spd
kts
Gust
kts
18/11:30pm 15.0 7.9 12.1 83 1.6 NNE 41 50 22 27 1020.3 - 0.0
18/11:00pm 15.0 7.5 12.1 83 1.6 NNE 43 50 23 27 1020.4 - 0.0
18/10:30pm 15.1 7.3 11.9 81 1.7 NNE 44 54 24 29 1020.5 - 0.0
18/10:00pm 15.1 7.3 11.9 81 1.7 NNE 44 54 24 29 1020.6 - 0.0
18/09:30pm 15.1 7.4 12.1 82 1.6 NNE 44 56 24 30 1020.4 - 0.0
18/09:00pm 15.1 7.4 12.1 82 1.6 NNE 44 56 24 30 1020.3 1020.3 0.0
18/08:30pm 15.1 7.4 12.1 82 1.6 NNE 44 54 24 29 1020.3 - 0.0
18/08:00pm 15.2 8.1 12.1 82 1.7 NNE 41 48 22 26 1020.5 - 0.0
18/07:30pm 15.3 8.5 12.1 81 1.7 NE 39 48 21 26 1020.5 - 0.0
18/07:00pm 15.5 8.3 11.9 79 2.0 NNE 41 50 22 27 1020.5 - 0.0
18/06:30pm 15.7 9.3 11.9 78 2.1 NNE 37 46 20 25 1020.8 - 0.0
18/06:00pm 15.9 9.5 11.9 77 2.2 NNE 37 44 20 24 1020.8 1020.8 0.0
18/05:30pm 16.3 10.9 12.1 76 2.3 NE 32 39 17 21 1021.1 - 0.0
18/05:00pm 16.4 11.3 12.0 75 2.4 NE 30 39 16 21 1021.1 - 0.0
18/04:30pm 16.8 11.7 11.9 73 2.7 NNE 30 39 16 21 1021.4 - 0.0
18/04:00pm 17.2 12.2 12.1 72 2.8 NNE 30 37 16 20 1021.7 - 0.0
18/03:30pm 17.5 12.5 12.2 71 2.9 NNE 30 37 16 20 1022.0 - 0.0
18/03:00pm 17.6 12.6 12.1 70 3.0 NNE 30 37 16 20 1022.3 1022.3 0.0
18/02:30pm 17.9 13.3 12.4 70 3.1 NNE 28 35 15 19 1022.7 - 0.0
18/02:00pm 17.7 12.4 12.4 71 2.9 NNE 32 37 17 20 1022.9 - 0.0
18/01:30pm 17.7 12.4 12.4 71 2.9 NE 32 39 17 21 1023.0 - 0.0
18/01:00pm 17.8 12.9 12.5 71 3.0 NE 30 39 16 21 1023.3 - 0.0
18/12:30pm 17.4 12.0 12.7 74 2.6 NE 33 41 18 22 1023.2 - 0.0
18/12:00pm 17.1 11.3 12.6 75 2.5 NE 35 43 19 23 1023.3 1023.3 0.0
18/11:30am 16.9 11.5 12.8 77 2.3 NE 33 41 18 22 1023.6 - 0.0
18/11:00am 16.8 11.6 13.3 80 2.0 NE 33 41 18 22 1023.7 - 0.0
18/10:30am 16.7 10.4 13.4 81 1.9 ENE 39 46 21 25 1023.7 - 0.0
18/10:00am 16.6 10.2 13.3 81 1.9 ENE 39 48 21 26 1023.7 - 0.0
18/09:30am 16.4 9.7 13.3 82 1.7 ENE 41 46 22 25 1023.7 - 0.0
18/09:00am 16.0 9.6 13.1 83 1.6 ENE 39 44 21 24 1023.7 1023.7 0.0
18/08:30am 15.9 9.9 13.2 84 1.5 ENE 37 41 20 22 1023.7 - 0.0
18/08:00am 15.6 9.9 13.1 85 1.4 ENE 35 41 19 22 1023.7 - 0.0
18/07:30am 15.3 9.2 13.0 86 1.3 ENE 37 41 20 22 1023.5 - 0.0
18/07:00am 15.1 9.8 13.1 88 1.1 ENE 33 39 18 21 1023.3 - 0.0
18/06:30am 14.6 9.2 12.8 89 1.0 ENE 33 37 18 20 1023.0 - 0.0
18/06:00am 14.0 8.4 12.2 89 1.0 ENE 33 39 18 21 1022.7 1022.7 0.0
18/05:30am 13.4 11.4 11.6 89 1.0 NE 13 19 7 10 1022.8 - 0.0
18/05:00am 13.1 11.0 11.3 89 1.0 NE 13 15 7 8 1022.8 - 0.0
18/04:30am 13.0 11.3 11.1 88 1.0 NNE 11 13 6 7 1022.9 - 0.0
18/04:00am 13.0 11.3 11.1 88 1.0 NE 11 13 6 7 1022.9 - 0.0
18/03:30am 13.0 11.2 10.9 87 1.1 NNE 11 15 6 8 1023.1 - 0.0
18/03:00am 13.1 11.0 11.0 87 1.1 NNE 13 15 7 8 1023.3 1023.3 0.0
18/02:30am 13.1 10.9 10.8 86 1.2 NNE 13 17 7 9 1023.3 - 0.0
18/02:00am 13.0 10.3 10.5 85 1.3 NNE 15 17 8 9 1023.5 - 0.0
18/01:30am 13.0 10.3 10.5 85 1.3 NNE 15 19 8 10 1023.8 - 0.0
18/01:00am 13.0 9.9 10.4 84 1.4 NNE 17 20 9 11 1024.2 - 0.0
18/12:30am 13.1 10.4 10.3 83 1.5 NNE 15 19 8 10 1024.4 - 0.0
18/12:00am 12.9 10.8 9.9 82 1.5 NNE 11 13 6 7 1024.6 1024.6 0.0
 
Date/Time
EDT
Temp
°C
App
Temp
°C
Dew
Point
°C
Rel
Hum
%
Delta-T
°C
Wind Press
QNH
hPa
Press
MSL
hPa
Rain since
9am
mm
Dir  Spd
km/h
Gust
km/h
Spd
kts
Gust
kts
17/11:30pm 12.9 10.8 9.7 81 1.6 NNE 11 13 6 7 1024.7 - 0.0
17/11:00pm 13.1 11.7 9.7 80 1.7 NE 7 9 4 5 1025.0 - 0.0
17/05:30pm 16.1 15.0 10.8 71 2.8 S 7 9 4 5 1024.0 - 0.0
17/05:00pm 16.1 15.0 10.8 71 2.8 S 7 11 4 6 1023.8 - 0.0
17/11:30am 15.5 13.4 11.1 75 2.4 SW 13 22 7 12 1024.4 - 0.0
17/11:00am 15.6 13.6 11.4 76 2.3 SW 13 20 7 11 1024.2 - 0.0
17/10:30am 15.4 14.1 11.4 77 2.2 SW 9 17 5 9 1024.2 - 0.0
17/10:00am 14.9 12.5 11.3 79 1.9 SW 15 22 8 12 1024.1 - 0.0
17/09:30am 14.5 11.8 10.5 77 2.1 SW 15 22 8 12 1024.0 - 0.0
17/09:00am 14.8 13.3 10.6 76 2.2 SW 9 15 5 8 1023.7 1023.7 0.0
17/08:30am 14.7 12.7 10.3 75 2.3 SSW 11 17 6 9 1023.6 - 0.0
17/08:00am 13.8 11.6 9.3 74 2.3 SW 11 22 6 12 1023.4 - 0.0
17/07:30am 13.6 10.6 9.1 74 2.3 SW 15 26 8 14 1022.9 - 0.0
17/07:00am 13.3 9.2 8.8 74 2.3 SW 20 28 11 15 1022.5 - 0.0
17/06:30am 13.0 9.6 9.1 77 2.0 SW 17 32 9 17 1022.2 - 0.0
17/06:00am 12.8 7.4 9.4 80 1.7 WSW 28 35 15 19 1022.0 1022.0 0.0
17/05:30am 12.6 8.2 9.1 79 1.8 WSW 22 28 12 15 1021.8 - 0.0
17/05:00am 12.2 8.0 8.3 77 1.9 W 20 24 11 13 1021.4 - 0.0
17/04:30am 12.4 8.2 8.1 75 2.1 W 20 24 11 13 1021.3 - 0.0
17/04:00am 12.5 8.2 8.0 74 2.2 W 20 24 11 13 1021.2 - 0.0
17/03:30am 12.8 7.4 8.1 73 2.3 SW 26 30 14 16 1021.1 - 0.0
17/02:30am 13.1 7.8 8.4 73 2.4 SW 26 35 14 19 1021.3 - 0.0
17/02:00am 13.1 7.4 8.4 73 2.4 SW 28 33 15 18 1021.3 - 0.0
17/01:30am 13.3 7.2 8.4 72 2.5 SW 30 35 16 19 1021.4 - 0.0
17/01:00am 13.1 8.5 8.0 71 2.5 W 22 28 12 15 1021.7 - 0.0
17/12:30am 13.3 8.3 8.0 70 2.6 WSW 24 28 13 15 1021.8 - 0.0
17/12:00am 13.3 7.4 7.7 69 2.8 WSW 28 30 15 16 1021.7 1021.7 0.0
 
Date/Time
EDT
Temp
°C
App
Temp
°C
Dew
Point
°C
Rel
Hum
%
Delta-T
°C
Wind Press
QNH
hPa
Press
MSL
hPa
Rain since
9am
mm
Dir  Spd
km/h
Gust
km/h
Spd
kts
Gust
kts
16/11:30pm 13.4 8.1 6.7 64 3.2 SW 24 30 13 16 1021.9 - 0.0
16/11:00pm 13.6 7.5 6.7 63 3.3 WSW 28 32 15 17 1021.9 - 0.0

Other Formats:

Comma delimited format used in spreadsheet applications
http://www.bom.gov.au/fwo/IDV60801/IDV60801.94893.axf

JavaScript Object Notation format (JSON) in row-major order
http://www.bom.gov.au/fwo/IDV60801/IDV60801.94893.json